sensor_id;sensor_type;location;lat;lon;timestamp;P1;durP1;ratioP1;P2;durP2;ratioP2
17449;SDS011;8842;51.244;7.102;2022-12-28T00:02:38;9.50;;;8.90;;
17449;SDS011;8842;51.244;7.102;2022-12-28T00:07:42;10.00;;;9.40;;
17449;SDS011;8842;51.244;7.102;2022-12-28T00:12:46;9.57;;;8.93;;
17449;SDS011;8842;51.244;7.102;2022-12-28T00:17:58;9.20;;;8.70;;
17449;SDS011;8842;51.244;7.102;2022-12-28T00:28:20;10.00;;;9.40;;
17449;SDS011;8842;51.244;7.102;2022-12-28T00:33:24;9.50;;;9.00;;
17449;SDS011;8842;51.244;7.102;2022-12-28T00:38:39;9.13;;;8.67;;
17449;SDS011;8842;51.244;7.102;2022-12-28T00:48:54;9.40;;;8.90;;
17449;SDS011;8842;51.244;7.102;2022-12-28T00:53:58;9.70;;;9.20;;
17449;SDS011;8842;51.244;7.102;2022-12-28T00:59:12;10.13;;;9.63;;
17449;SDS011;8842;51.244;7.102;2022-12-28T01:04:16;9.30;;;8.80;;
17449;SDS011;8842;51.244;7.102;2022-12-28T01:09:20;9.63;;;9.13;;
17449;SDS011;8842;51.244;7.102;2022-12-28T01:14:34;10.20;;;9.60;;
17449;SDS011;8842;51.244;7.102;2022-12-28T01:19:49;9.20;;;8.70;;
17449;SDS011;8842;51.244;7.102;2022-12-28T01:30:13;10.93;;;10.33;;
17449;SDS011;8842;51.244;7.102;2022-12-28T01:35:17;10.90;;;10.30;;
17449;SDS011;8842;51.244;7.102;2022-12-28T01:40:29;11.30;;;10.70;;
17449;SDS011;8842;51.244;7.102;2022-12-28T01:45:33;12.47;;;11.67;;
17449;SDS011;8842;51.244;7.102;2022-12-28T01:50:53;11.30;;;10.60;;
17449;SDS011;8842;51.244;7.102;2022-12-28T01:55:58;11.03;;;10.43;;
17449;SDS011;8842;51.244;7.102;2022-12-28T02:01:12;10.53;;;9.93;;
17449;SDS011;8842;51.244;7.102;2022-12-28T02:06:16;11.10;;;10.40;;
17449;SDS011;8842;51.244;7.102;2022-12-28T02:11:28;10.70;;;10.10;;
17449;SDS011;8842;51.244;7.102;2022-12-28T02:16:32;11.70;;;11.00;;
17449;SDS011;8842;51.244;7.102;2022-12-28T02:21:50;11.03;;;10.43;;
17449;SDS011;8842;51.244;7.102;2022-12-28T02:27:04;11.37;;;10.73;;
17449;SDS011;8842;51.244;7.102;2022-12-28T02:32:18;11.70;;;11.00;;
17449;SDS011;8842;51.244;7.102;2022-12-28T02:37:37;10.50;;;10.00;;
17449;SDS011;8842;51.244;7.102;2022-12-28T02:42:43;9.43;;;8.90;;
17449;SDS011;8842;51.244;7.102;2022-12-28T02:47:58;9.80;;;9.30;;
17449;SDS011;8842;51.244;7.102;2022-12-28T02:53:23;10.57;;;9.97;;
17449;SDS011;8842;51.244;7.102;2022-12-28T02:58:57;10.30;;;9.70;;
17449;SDS011;8842;51.244;7.102;2022-12-28T03:04:13;9.73;;;9.23;;
17449;SDS011;8842;51.244;7.102;2022-12-28T03:09:20;9.70;;;9.20;;
17449;SDS011;8842;51.244;7.102;2022-12-28T03:14:37;10.53;;;10.00;;
17449;SDS011;8842;51.244;7.102;2022-12-28T03:24:57;10.23;;;9.67;;
17449;SDS011;8842;51.244;7.102;2022-12-28T03:30:22;11.20;;;10.60;;
17449;SDS011;8842;51.244;7.102;2022-12-28T03:35:47;11.17;;;10.57;;
17449;SDS011;8842;51.244;7.102;2022-12-28T03:41:04;10.93;;;10.33;;
17449;SDS011;8842;51.244;7.102;2022-12-28T03:46:12;10.80;;;10.20;;
17449;SDS011;8842;51.244;7.102;2022-12-28T03:51:28;11.23;;;10.63;;
17449;SDS011;8842;51.244;7.102;2022-12-28T03:56:36;10.13;;;9.63;;
17449;SDS011;8842;51.244;7.102;2022-12-28T04:01:50;9.57;;;9.07;;
17449;SDS011;8842;51.244;7.102;2022-12-28T04:06:54;9.90;;;9.30;;
17449;SDS011;8842;51.244;7.102;2022-12-28T04:11:58;9.80;;;9.20;;
17449;SDS011;8842;51.244;7.102;2022-12-28T04:17:02;8.83;;;8.43;;
17449;SDS011;8842;51.244;7.102;2022-12-28T04:22:06;8.77;;;8.37;;
17449;SDS011;8842;51.244;7.102;2022-12-28T04:27:21;9.67;;;9.17;;
17449;SDS011;8842;51.244;7.102;2022-12-28T04:32:36;8.13;;;7.73;;
17449;SDS011;8842;51.244;7.102;2022-12-28T04:37:40;9.43;;;8.93;;
17449;SDS011;8842;51.244;7.102;2022-12-28T04:42:54;10.40;;;9.90;;
17449;SDS011;8842;51.244;7.102;2022-12-28T04:48:06;10.03;;;9.53;;
17449;SDS011;8842;51.244;7.102;2022-12-28T04:58:23;10.97;;;10.37;;
17449;SDS011;8842;51.244;7.102;2022-12-28T05:03:28;12.17;;;11.57;;
17449;SDS011;8842;51.244;7.102;2022-12-28T05:08:42;11.83;;;11.23;;
17449;SDS011;8842;51.244;7.102;2022-12-28T05:13:47;12.20;;;11.53;;
17449;SDS011;8842;51.244;7.102;2022-12-28T05:18:59;12.40;;;11.70;;
17449;SDS011;8842;51.244;7.102;2022-12-28T05:29:16;12.70;;;12.00;;
17449;SDS011;8842;51.244;7.102;2022-12-28T05:34:30;12.80;;;12.10;;
17449;SDS011;8842;51.244;7.102;2022-12-28T05:39:34;12.40;;;11.80;;
17449;SDS011;8842;51.244;7.102;2022-12-28T05:44:49;12.37;;;11.67;;
17449;SDS011;8842;51.244;7.102;2022-12-28T05:49:53;12.30;;;11.70;;
17449;SDS011;8842;51.244;7.102;2022-12-28T05:55:08;13.27;;;12.47;;
17449;SDS011;8842;51.244;7.102;2022-12-28T06:00:13;13.13;;;12.43;;
17449;SDS011;8842;51.244;7.102;2022-12-28T06:05:28;13.57;;;12.87;;
17449;SDS011;8842;51.244;7.102;2022-12-28T06:10:32;13.33;;;12.63;;
17449;SDS011;8842;51.244;7.102;2022-12-28T06:15:36;14.07;;;13.30;;
17449;SDS011;8842;51.244;7.102;2022-12-28T06:20:48;13.57;;;12.87;;
17449;SDS011;8842;51.244;7.102;2022-12-28T06:25:52;15.27;;;14.00;;
17449;SDS011;8842;51.244;7.102;2022-12-28T06:31:06;13.80;;;13.10;;
17449;SDS011;8842;51.244;7.102;2022-12-28T06:41:25;13.03;;;12.33;;
17449;SDS011;8842;51.244;7.102;2022-12-28T06:46:30;12.40;;;11.80;;
17449;SDS011;8842;51.244;7.102;2022-12-28T06:51:44;12.33;;;11.73;;
17449;SDS011;8842;51.244;7.102;2022-12-28T07:02:02;12.30;;;11.70;;
17449;SDS011;8842;51.244;7.102;2022-12-28T07:07:27;12.10;;;11.50;;
17449;SDS011;8842;51.244;7.102;2022-12-28T07:12:31;11.93;;;11.33;;
17449;SDS011;8842;51.244;7.102;2022-12-28T07:17:44;12.47;;;11.87;;
17449;SDS011;8842;51.244;7.102;2022-12-28T07:22:48;12.50;;;11.90;;
17449;SDS011;8842;51.244;7.102;2022-12-28T07:27:52;12.70;;;12.00;;
17449;SDS011;8842;51.244;7.102;2022-12-28T07:33:07;12.80;;;12.10;;
17449;SDS011;8842;51.244;7.102;2022-12-28T07:38:21;12.20;;;11.60;;
17449;SDS011;8842;51.244;7.102;2022-12-28T07:48:50;13.30;;;12.50;;
17449;SDS011;8842;51.244;7.102;2022-12-28T07:53:55;12.17;;;11.57;;
17449;SDS011;8842;51.244;7.102;2022-12-28T07:59:10;12.37;;;11.77;;
17449;SDS011;8842;51.244;7.102;2022-12-28T08:04:15;12.47;;;11.87;;
17449;SDS011;8842;51.244;7.102;2022-12-28T08:09:20;12.80;;;12.10;;
17449;SDS011;8842;51.244;7.102;2022-12-28T08:14:31;13.00;;;12.30;;
17449;SDS011;8842;51.244;7.102;2022-12-28T08:19:36;12.50;;;11.90;;
17449;SDS011;8842;51.244;7.102;2022-12-28T08:24:47;12.73;;;12.03;;
17449;SDS011;8842;51.244;7.102;2022-12-28T08:30:03;13.20;;;12.50;;
17449;SDS011;8842;51.244;7.102;2022-12-28T08:35:08;13.10;;;12.40;;
17449;SDS011;8842;51.244;7.102;2022-12-28T08:40:22;13.27;;;12.57;;
17449;SDS011;8842;51.244;7.102;2022-12-28T08:45:29;12.83;;;12.13;;
17449;SDS011;8842;51.244;7.102;2022-12-28T08:50:43;13.03;;;12.33;;
17449;SDS011;8842;51.244;7.102;2022-12-28T08:55:47;13.23;;;12.53;;
17449;SDS011;8842;51.244;7.102;2022-12-28T09:00:51;13.43;;;12.73;;
17449;SDS011;8842;51.244;7.102;2022-12-28T09:06:06;13.70;;;13.00;;
17449;SDS011;8842;51.244;7.102;2022-12-28T09:11:13;13.40;;;12.70;;
17449;SDS011;8842;51.244;7.102;2022-12-28T09:16:25;12.27;;;11.67;;
17449;SDS011;8842;51.244;7.102;2022-12-28T09:21:30;12.60;;;12.00;;
17449;SDS011;8842;51.244;7.102;2022-12-28T09:26:36;13.27;;;12.37;;
17449;SDS011;8842;51.244;7.102;2022-12-28T09:36:53;13.67;;;12.97;;
17449;SDS011;8842;51.244;7.102;2022-12-28T09:41:58;13.80;;;13.10;;
17449;SDS011;8842;51.244;7.102;2022-12-28T09:47:16;13.50;;;12.80;;
17449;SDS011;8842;51.244;7.102;2022-12-28T09:57:40;13.50;;;12.80;;
17449;SDS011;8842;51.244;7.102;2022-12-28T10:08:00;13.10;;;12.30;;
17449;SDS011;8842;51.244;7.102;2022-12-28T10:13:17;13.10;;;12.40;;
17449;SDS011;8842;51.244;7.102;2022-12-28T10:23:36;13.20;;;12.50;;
17449;SDS011;8842;51.244;7.102;2022-12-28T10:28:43;13.37;;;12.67;;
17449;SDS011;8842;51.244;7.102;2022-12-28T10:33:57;12.70;;;12.00;;
17449;SDS011;8842;51.244;7.102;2022-12-28T10:44:17;11.63;;;11.03;;
17449;SDS011;8842;51.244;7.102;2022-12-28T10:54:38;12.50;;;11.90;;
17449;SDS011;8842;51.244;7.102;2022-12-28T10:59:44;13.30;;;12.60;;
17449;SDS011;8842;51.244;7.102;2022-12-28T11:05:50;12.57;;;11.97;;
17449;SDS011;8842;51.244;7.102;2022-12-28T11:11:16;12.53;;;11.93;;
17449;SDS011;8842;51.244;7.102;2022-12-28T11:16:34;12.90;;;12.20;;
17449;SDS011;8842;51.244;7.102;2022-12-28T11:21:40;13.00;;;12.30;;
17449;SDS011;8842;51.244;7.102;2022-12-28T11:26:56;11.70;;;11.10;;
17449;SDS011;8842;51.244;7.102;2022-12-28T11:32:11;10.40;;;9.90;;
17449;SDS011;8842;51.244;7.102;2022-12-28T11:48:04;12.30;;;11.70;;
17449;SDS011;8842;51.244;7.102;2022-12-28T11:53:48;11.97;;;11.37;;
17449;SDS011;8842;51.244;7.102;2022-12-28T12:04:39;12.97;;;12.27;;
17449;SDS011;8842;51.244;7.102;2022-12-28T12:09:45;10.33;;;9.83;;
17449;SDS011;8842;51.244;7.102;2022-12-28T12:14:51;11.80;;;11.20;;
17449;SDS011;8842;51.244;7.102;2022-12-28T12:20:07;12.20;;;11.60;;
17449;SDS011;8842;51.244;7.102;2022-12-28T12:25:22;12.33;;;11.73;;
17449;SDS011;8842;51.244;7.102;2022-12-28T12:30:29;12.70;;;12.00;;
17449;SDS011;8842;51.244;7.102;2022-12-28T12:41:01;13.47;;;12.67;;
17449;SDS011;8842;51.244;7.102;2022-12-28T12:46:22;12.97;;;12.27;;
17449;SDS011;8842;51.244;7.102;2022-12-28T12:51:35;13.00;;;12.30;;
17449;SDS011;8842;51.244;7.102;2022-12-28T12:56:49;11.77;;;11.17;;
17449;SDS011;8842;51.244;7.102;2022-12-28T13:01:59;12.80;;;12.10;;
17449;SDS011;8842;51.244;7.102;2022-12-28T13:08:04;12.20;;;11.60;;
17449;SDS011;8842;51.244;7.102;2022-12-28T13:13:14;13.00;;;12.30;;
17449;SDS011;8842;51.244;7.102;2022-12-28T13:18:30;12.00;;;11.40;;
17449;SDS011;8842;51.244;7.102;2022-12-28T13:28:54;13.10;;;12.40;;
17449;SDS011;8842;51.244;7.102;2022-12-28T13:39:12;13.27;;;12.57;;
17449;SDS011;8842;51.244;7.102;2022-12-28T13:44:27;12.70;;;12.00;;
17449;SDS011;8842;51.244;7.102;2022-12-28T13:54:50;11.70;;;11.10;;
17449;SDS011;8842;51.244;7.102;2022-12-28T14:00:07;12.50;;;11.80;;
17449;SDS011;8842;51.244;7.102;2022-12-28T14:05:17;11.80;;;11.10;;
17449;SDS011;8842;51.244;7.102;2022-12-28T14:10:23;12.03;;;11.33;;
17449;SDS011;8842;51.244;7.102;2022-12-28T14:15:47;11.57;;;10.97;;
17449;SDS011;8842;51.244;7.102;2022-12-28T14:26:09;12.00;;;11.40;;
17449;SDS011;8842;51.244;7.102;2022-12-28T14:36:40;11.40;;;10.80;;
17449;SDS011;8842;51.244;7.102;2022-12-28T14:41:47;11.30;;;10.70;;
17449;SDS011;8842;51.244;7.102;2022-12-28T14:47:34;11.00;;;10.40;;
17449;SDS011;8842;51.244;7.102;2022-12-28T14:52:46;11.23;;;10.63;;
17449;SDS011;8842;51.244;7.102;2022-12-28T14:57:55;11.07;;;10.47;;
17449;SDS011;8842;51.244;7.102;2022-12-28T15:08:45;10.30;;;9.80;;
17449;SDS011;8842;51.244;7.102;2022-12-28T15:19:07;10.03;;;9.53;;
17449;SDS011;8842;51.244;7.102;2022-12-28T15:29:30;9.47;;;8.97;;
17449;SDS011;8842;51.244;7.102;2022-12-28T15:39:45;9.10;;;8.67;;
17449;SDS011;8842;51.244;7.102;2022-12-28T15:44:50;10.17;;;9.67;;
17449;SDS011;8842;51.244;7.102;2022-12-28T15:50:05;9.53;;;9.03;;
17449;SDS011;8842;51.244;7.102;2022-12-28T15:55:11;9.67;;;9.17;;
17449;SDS011;8842;51.244;7.102;2022-12-28T16:00:15;9.27;;;8.77;;
17449;SDS011;8842;51.244;7.102;2022-12-28T16:05:21;8.70;;;8.30;;
17449;SDS011;8842;51.244;7.102;2022-12-28T16:10:25;8.90;;;8.50;;
17449;SDS011;8842;51.244;7.102;2022-12-28T16:15:45;9.60;;;9.10;;
17449;SDS011;8842;51.244;7.102;2022-12-28T16:20:49;9.70;;;9.20;;
17449;SDS011;8842;51.244;7.102;2022-12-28T16:26:11;9.90;;;9.40;;
17449;SDS011;8842;51.244;7.102;2022-12-28T16:31:20;9.83;;;9.33;;
17449;SDS011;8842;51.244;7.102;2022-12-28T16:36:41;9.70;;;9.20;;
17449;SDS011;8842;51.244;7.102;2022-12-28T16:41:55;9.67;;;9.17;;
17449;SDS011;8842;51.244;7.102;2022-12-28T16:52:10;7.93;;;7.53;;
17449;SDS011;8842;51.244;7.102;2022-12-28T16:57:15;8.20;;;7.80;;
17449;SDS011;8842;51.244;7.102;2022-12-28T17:02:26;8.47;;;8.07;;
17449;SDS011;8842;51.244;7.102;2022-12-28T17:07:30;8.60;;;8.20;;
17449;SDS011;8842;51.244;7.102;2022-12-28T17:12:42;8.50;;;8.10;;
17449;SDS011;8842;51.244;7.102;2022-12-28T17:17:54;8.30;;;7.90;;
17449;SDS011;8842;51.244;7.102;2022-12-28T17:22:58;7.80;;;7.40;;
17449;SDS011;8842;51.244;7.102;2022-12-28T17:28:12;8.33;;;7.93;;
17449;SDS011;8842;51.244;7.102;2022-12-28T17:33:17;8.77;;;8.37;;
17449;SDS011;8842;51.244;7.102;2022-12-28T17:38:32;8.93;;;8.53;;
17449;SDS011;8842;51.244;7.102;2022-12-28T17:48:50;9.87;;;9.37;;
17449;SDS011;8842;51.244;7.102;2022-12-28T17:53:56;9.87;;;9.37;;
17449;SDS011;8842;51.244;7.102;2022-12-28T17:59:00;10.50;;;10.00;;
17449;SDS011;8842;51.244;7.102;2022-12-28T18:04:20;11.17;;;10.57;;
17449;SDS011;8842;51.244;7.102;2022-12-28T18:09:25;12.10;;;11.20;;
17449;SDS011;8842;51.244;7.102;2022-12-28T18:19:43;12.30;;;11.70;;
17449;SDS011;8842;51.244;7.102;2022-12-28T18:24:56;12.33;;;11.70;;
17449;SDS011;8842;51.244;7.102;2022-12-28T18:30:01;12.20;;;11.60;;
17449;SDS011;8842;51.244;7.102;2022-12-28T18:35:15;12.47;;;11.80;;
17449;SDS011;8842;51.244;7.102;2022-12-28T18:40:29;13.07;;;12.37;;
17449;SDS011;8842;51.244;7.102;2022-12-28T18:50:53;13.40;;;12.70;;
17449;SDS011;8842;51.244;7.102;2022-12-28T18:55:59;13.30;;;12.60;;
17449;SDS011;8842;51.244;7.102;2022-12-28T19:01:14;14.17;;;13.37;;
17449;SDS011;8842;51.244;7.102;2022-12-28T19:06:20;15.50;;;13.50;;
17449;SDS011;8842;51.244;7.102;2022-12-28T19:11:40;13.70;;;13.00;;
17449;SDS011;8842;51.244;7.102;2022-12-28T19:16:46;14.60;;;13.80;;
17449;SDS011;8842;51.244;7.102;2022-12-28T19:22:00;14.70;;;13.90;;
17449;SDS011;8842;51.244;7.102;2022-12-28T19:27:05;14.50;;;13.70;;
17449;SDS011;8842;51.244;7.102;2022-12-28T19:32:19;13.73;;;13.03;;
17449;SDS011;8842;51.244;7.102;2022-12-28T19:42:36;14.10;;;13.40;;
17449;SDS011;8842;51.244;7.102;2022-12-28T19:47:40;14.00;;;13.30;;
17449;SDS011;8842;51.244;7.102;2022-12-28T19:52:44;13.50;;;12.80;;
17449;SDS011;8842;51.244;7.102;2022-12-28T19:57:48;13.53;;;12.83;;
17449;SDS011;8842;51.244;7.102;2022-12-28T20:03:02;13.10;;;12.40;;
17449;SDS011;8842;51.244;7.102;2022-12-28T20:08:07;13.10;;;12.40;;
17449;SDS011;8842;51.244;7.102;2022-12-28T20:13:11;13.20;;;12.50;;
17449;SDS011;8842;51.244;7.102;2022-12-28T20:18:15;13.00;;;12.30;;
17449;SDS011;8842;51.244;7.102;2022-12-28T20:23:19;12.97;;;12.27;;
17449;SDS011;8842;51.244;7.102;2022-12-28T20:28:34;13.33;;;12.63;;
17449;SDS011;8842;51.244;7.102;2022-12-28T20:33:38;13.20;;;12.50;;
17449;SDS011;8842;51.244;7.102;2022-12-28T20:38:43;13.07;;;12.37;;
17449;SDS011;8842;51.244;7.102;2022-12-28T20:43:57;12.83;;;12.13;;
17449;SDS011;8842;51.244;7.102;2022-12-28T20:49:02;12.80;;;12.10;;
17449;SDS011;8842;51.244;7.102;2022-12-28T20:54:08;13.40;;;12.70;;
17449;SDS011;8842;51.244;7.102;2022-12-28T20:59:13;13.20;;;12.50;;
17449;SDS011;8842;51.244;7.102;2022-12-28T21:04:27;13.10;;;12.40;;
17449;SDS011;8842;51.244;7.102;2022-12-28T21:09:32;13.33;;;12.63;;
17449;SDS011;8842;51.244;7.102;2022-12-28T21:14:36;13.30;;;12.60;;
17449;SDS011;8842;51.244;7.102;2022-12-28T21:19:50;12.60;;;12.00;;
17449;SDS011;8842;51.244;7.102;2022-12-28T21:24:54;13.10;;;12.40;;
17449;SDS011;8842;51.244;7.102;2022-12-28T21:30:09;12.80;;;12.10;;
17449;SDS011;8842;51.244;7.102;2022-12-28T21:35:14;12.77;;;12.07;;
17449;SDS011;8842;51.244;7.102;2022-12-28T21:40:28;13.00;;;12.30;;
17449;SDS011;8842;51.244;7.102;2022-12-28T21:45:32;13.20;;;12.50;;
17449;SDS011;8842;51.244;7.102;2022-12-28T21:50:47;12.60;;;12.00;;
17449;SDS011;8842;51.244;7.102;2022-12-28T21:55:51;12.30;;;11.70;;
17449;SDS011;8842;51.244;7.102;2022-12-28T22:00:58;12.80;;;12.10;;
17449;SDS011;8842;51.244;7.102;2022-12-28T22:06:28;12.33;;;11.73;;
17449;SDS011;8842;51.244;7.102;2022-12-28T22:11:42;12.27;;;11.67;;
17449;SDS011;8842;51.244;7.102;2022-12-28T22:22:18;12.90;;;12.20;;
17449;SDS011;8842;51.244;7.102;2022-12-28T22:27:22;12.77;;;12.07;;
17449;SDS011;8842;51.244;7.102;2022-12-28T22:32:26;12.63;;;12.00;;
17449;SDS011;8842;51.244;7.102;2022-12-28T22:37:40;13.17;;;12.47;;
17449;SDS011;8842;51.244;7.102;2022-12-28T22:42:45;12.60;;;12.00;;
17449;SDS011;8842;51.244;7.102;2022-12-28T22:48:10;12.80;;;12.10;;
17449;SDS011;8842;51.244;7.102;2022-12-28T22:53:14;13.37;;;12.67;;
17449;SDS011;8842;51.244;7.102;2022-12-28T22:58:28;13.53;;;12.83;;
17449;SDS011;8842;51.244;7.102;2022-12-28T23:03:32;12.83;;;12.13;;
17449;SDS011;8842;51.244;7.102;2022-12-28T23:08:37;13.30;;;12.60;;
17449;SDS011;8842;51.244;7.102;2022-12-28T23:13:57;13.70;;;13.00;;
17449;SDS011;8842;51.244;7.102;2022-12-28T23:19:04;13.40;;;12.70;;
17449;SDS011;8842;51.244;7.102;2022-12-28T23:24:19;13.10;;;12.40;;
17449;SDS011;8842;51.244;7.102;2022-12-28T23:29:33;13.00;;;12.30;;
17449;SDS011;8842;51.244;7.102;2022-12-28T23:34:37;12.63;;;12.00;;
17449;SDS011;8842;51.244;7.102;2022-12-28T23:39:51;12.13;;;11.53;;
17449;SDS011;8842;51.244;7.102;2022-12-28T23:44:55;12.10;;;11.50;;
17449;SDS011;8842;51.244;7.102;2022-12-28T23:50:10;12.43;;;11.83;;
17449;SDS011;8842;51.244;7.102;2022-12-28T23:55:15;12.47;;;11.87;;
